sensor_id;sensor_type;location;lat;lon;timestamp;P1;durP1;ratioP1;P2;durP2;ratioP2
41229;SDS011;26964;50.428;19.218;2023-08-17T00:00:40;15.6;;;9.7;;
41229;SDS011;26964;50.428;19.218;2023-08-17T00:01:40;14.9;;;10.2;;
41229;SDS011;26964;50.428;19.218;2023-08-17T00:02:40;13.2;;;9.9;;
41229;SDS011;26964;50.428;19.218;2023-08-17T00:03:40;15.6;;;10.8;;
41229;SDS011;26964;50.428;19.218;2023-08-17T00:04:40;13.5;;;10.9;;
41229;SDS011;26964;50.428;19.218;2023-08-17T00:05:40;13.6;;;9.9;;
41229;SDS011;26964;50.428;19.218;2023-08-17T00:06:40;15.0;;;9.6;;
41229;SDS011;26964;50.428;19.218;2023-08-17T00:07:40;13.9;;;10.3;;
41229;SDS011;26964;50.428;19.218;2023-08-17T00:08:41;14.1;;;10.3;;
41229;SDS011;26964;50.428;19.218;2023-08-17T00:09:40;14.0;;;10.4;;
41229;SDS011;26964;50.428;19.218;2023-08-17T00:10:40;14.0;;;10.3;;
41229;SDS011;26964;50.428;19.218;2023-08-17T00:11:40;15.4;;;10.8;;
41229;SDS011;26964;50.428;19.218;2023-08-17T00:12:40;15.7;;;9.6;;
41229;SDS011;26964;50.428;19.218;2023-08-17T00:13:40;12.8;;;10.3;;
41229;SDS011;26964;50.428;19.218;2023-08-17T00:14:40;16.9;;;9.9;;
41229;SDS011;26964;50.428;19.218;2023-08-17T00:15:40;12.6;;;9.8;;
41229;SDS011;26964;50.428;19.218;2023-08-17T00:16:40;11.6;;;9.1;;
41229;SDS011;26964;50.428;19.218;2023-08-17T00:17:40;13.3;;;9.4;;
41229;SDS011;26964;50.428;19.218;2023-08-17T00:18:40;16.9;;;9.5;;
41229;SDS011;26964;50.428;19.218;2023-08-17T00:19:40;15.0;;;10.1;;
41229;SDS011;26964;50.428;19.218;2023-08-17T00:20:40;13.7;;;9.8;;
41229;SDS011;26964;50.428;19.218;2023-08-17T00:21:40;12.8;;;9.5;;
41229;SDS011;26964;50.428;19.218;2023-08-17T00:22:40;13.3;;;9.8;;
41229;SDS011;26964;50.428;19.218;2023-08-17T00:23:40;14.8;;;9.7;;
41229;SDS011;26964;50.428;19.218;2023-08-17T00:24:41;13.6;;;9.4;;
41229;SDS011;26964;50.428;19.218;2023-08-17T00:25:40;18.2;;;9.5;;
41229;SDS011;26964;50.428;19.218;2023-08-17T00:26:40;13.2;;;9.4;;
41229;SDS011;26964;50.428;19.218;2023-08-17T00:27:40;11.6;;;9.7;;
41229;SDS011;26964;50.428;19.218;2023-08-17T00:28:40;15.8;;;9.9;;
41229;SDS011;26964;50.428;19.218;2023-08-17T00:29:40;11.9;;;9.3;;
41229;SDS011;26964;50.428;19.218;2023-08-17T00:30:40;13.2;;;9.9;;
41229;SDS011;26964;50.428;19.218;2023-08-17T00:31:40;13.2;;;9.3;;
41229;SDS011;26964;50.428;19.218;2023-08-17T00:32:40;12.1;;;10.0;;
41229;SDS011;26964;50.428;19.218;2023-08-17T00:33:40;11.6;;;9.4;;
41229;SDS011;26964;50.428;19.218;2023-08-17T00:34:40;15.0;;;9.7;;
41229;SDS011;26964;50.428;19.218;2023-08-17T00:35:40;13.9;;;9.6;;
41229;SDS011;26964;50.428;19.218;2023-08-17T00:36:40;16.1;;;10.1;;
41229;SDS011;26964;50.428;19.218;2023-08-17T00:37:40;12.3;;;10.2;;
41229;SDS011;26964;50.428;19.218;2023-08-17T00:38:40;16.2;;;9.6;;
41229;SDS011;26964;50.428;19.218;2023-08-17T00:39:40;15.2;;;9.9;;
41229;SDS011;26964;50.428;19.218;2023-08-17T00:40:40;14.0;;;10.1;;
41229;SDS011;26964;50.428;19.218;2023-08-17T00:41:40;13.9;;;10.1;;
41229;SDS011;26964;50.428;19.218;2023-08-17T00:42:40;13.0;;;9.5;;
41229;SDS011;26964;50.428;19.218;2023-08-17T00:43:40;12.5;;;9.6;;
41229;SDS011;26964;50.428;19.218;2023-08-17T00:44:40;12.5;;;9.6;;
41229;SDS011;26964;50.428;19.218;2023-08-17T00:45:40;12.8;;;9.7;;
41229;SDS011;26964;50.428;19.218;2023-08-17T00:46:40;11.6;;;9.3;;
41229;SDS011;26964;50.428;19.218;2023-08-17T00:47:40;13.3;;;9.8;;
41229;SDS011;26964;50.428;19.218;2023-08-17T00:48:40;14.5;;;10.7;;
41229;SDS011;26964;50.428;19.218;2023-08-17T00:49:40;13.4;;;9.9;;
41229;SDS011;26964;50.428;19.218;2023-08-17T00:50:40;16.5;;;10.4;;
41229;SDS011;26964;50.428;19.218;2023-08-17T00:51:40;13.7;;;10.3;;
41229;SDS011;26964;50.428;19.218;2023-08-17T00:52:40;13.3;;;10.2;;
41229;SDS011;26964;50.428;19.218;2023-08-17T00:53:40;13.0;;;9.9;;
41229;SDS011;26964;50.428;19.218;2023-08-17T00:54:40;12.5;;;10.1;;
41229;SDS011;26964;50.428;19.218;2023-08-17T00:55:40;10.9;;;8.9;;
41229;SDS011;26964;50.428;19.218;2023-08-17T00:56:40;12.8;;;9.9;;
41229;SDS011;26964;50.428;19.218;2023-08-17T00:57:40;13.9;;;9.6;;
41229;SDS011;26964;50.428;19.218;2023-08-17T00:58:40;13.7;;;9.9;;
41229;SDS011;26964;50.428;19.218;2023-08-17T00:59:40;11.8;;;9.5;;
41229;SDS011;26964;50.428;19.218;2023-08-17T01:00:40;11.7;;;9.0;;
41229;SDS011;26964;50.428;19.218;2023-08-17T01:01:40;14.2;;;10.2;;
41229;SDS011;26964;50.428;19.218;2023-08-17T01:02:41;13.7;;;10.0;;
41229;SDS011;26964;50.428;19.218;2023-08-17T01:03:40;15.0;;;10.6;;
41229;SDS011;26964;50.428;19.218;2023-08-17T01:04:40;13.7;;;9.5;;
41229;SDS011;26964;50.428;19.218;2023-08-17T01:05:40;14.2;;;9.6;;
41229;SDS011;26964;50.428;19.218;2023-08-17T01:06:40;12.1;;;9.4;;
41229;SDS011;26964;50.428;19.218;2023-08-17T01:07:40;15.6;;;10.0;;
41229;SDS011;26964;50.428;19.218;2023-08-17T01:08:40;15.4;;;9.8;;
41229;SDS011;26964;50.428;19.218;2023-08-17T01:09:40;12.5;;;10.2;;
41229;SDS011;26964;50.428;19.218;2023-08-17T01:10:42;15.0;;;9.7;;
41229;SDS011;26964;50.428;19.218;2023-08-17T01:11:41;11.7;;;9.5;;
41229;SDS011;26964;50.428;19.218;2023-08-17T01:12:42;12.0;;;9.5;;
41229;SDS011;26964;50.428;19.218;2023-08-17T01:13:43;15.5;;;10.3;;
41229;SDS011;26964;50.428;19.218;2023-08-17T01:14:43;14.3;;;9.9;;
41229;SDS011;26964;50.428;19.218;2023-08-17T01:15:42;15.6;;;9.5;;
41229;SDS011;26964;50.428;19.218;2023-08-17T01:16:42;16.5;;;10.4;;
41229;SDS011;26964;50.428;19.218;2023-08-17T01:17:42;12.9;;;10.3;;
41229;SDS011;26964;50.428;19.218;2023-08-17T01:18:40;12.9;;;10.1;;
41229;SDS011;26964;50.428;19.218;2023-08-17T01:19:40;13.8;;;10.6;;
41229;SDS011;26964;50.428;19.218;2023-08-17T01:20:40;12.1;;;10.1;;
41229;SDS011;26964;50.428;19.218;2023-08-17T01:21:41;13.0;;;10.0;;
41229;SDS011;26964;50.428;19.218;2023-08-17T01:22:40;14.7;;;9.8;;
41229;SDS011;26964;50.428;19.218;2023-08-17T01:23:40;13.9;;;11.0;;
41229;SDS011;26964;50.428;19.218;2023-08-17T01:24:40;13.9;;;9.9;;
41229;SDS011;26964;50.428;19.218;2023-08-17T01:25:40;15.4;;;9.9;;
41229;SDS011;26964;50.428;19.218;2023-08-17T01:26:40;14.6;;;9.8;;
41229;SDS011;26964;50.428;19.218;2023-08-17T01:27:41;15.7;;;9.3;;
41229;SDS011;26964;50.428;19.218;2023-08-17T01:28:40;13.5;;;10.4;;
41229;SDS011;26964;50.428;19.218;2023-08-17T01:29:40;11.1;;;9.7;;
41229;SDS011;26964;50.428;19.218;2023-08-17T01:30:44;13.8;;;10.0;;
41229;SDS011;26964;50.428;19.218;2023-08-17T01:31:42;12.4;;;10.7;;
41229;SDS011;26964;50.428;19.218;2023-08-17T01:32:43;14.1;;;9.3;;
41229;SDS011;26964;50.428;19.218;2023-08-17T01:33:43;16.3;;;10.0;;
41229;SDS011;26964;50.428;19.218;2023-08-17T01:34:43;17.6;;;9.9;;
41229;SDS011;26964;50.428;19.218;2023-08-17T01:35:43;15.0;;;10.1;;
41229;SDS011;26964;50.428;19.218;2023-08-17T01:36:42;18.1;;;10.0;;
41229;SDS011;26964;50.428;19.218;2023-08-17T01:37:40;16.0;;;10.4;;
41229;SDS011;26964;50.428;19.218;2023-08-17T01:38:40;14.3;;;9.7;;
41229;SDS011;26964;50.428;19.218;2023-08-17T01:39:42;14.1;;;9.6;;
41229;SDS011;26964;50.428;19.218;2023-08-17T01:40:40;13.1;;;9.8;;
41229;SDS011;26964;50.428;19.218;2023-08-17T01:41:40;15.8;;;10.1;;
41229;SDS011;26964;50.428;19.218;2023-08-17T01:42:41;13.1;;;9.7;;
41229;SDS011;26964;50.428;19.218;2023-08-17T01:43:41;12.8;;;9.0;;
41229;SDS011;26964;50.428;19.218;2023-08-17T01:44:40;12.6;;;9.4;;
41229;SDS011;26964;50.428;19.218;2023-08-17T01:45:40;14.1;;;10.3;;
41229;SDS011;26964;50.428;19.218;2023-08-17T01:46:41;12.2;;;9.6;;
41229;SDS011;26964;50.428;19.218;2023-08-17T01:47:40;13.2;;;9.6;;
41229;SDS011;26964;50.428;19.218;2023-08-17T01:48:40;13.1;;;10.6;;
41229;SDS011;26964;50.428;19.218;2023-08-17T01:49:40;10.9;;;9.4;;
41229;SDS011;26964;50.428;19.218;2023-08-17T01:50:40;15.6;;;10.3;;
41229;SDS011;26964;50.428;19.218;2023-08-17T01:51:40;12.4;;;10.0;;
41229;SDS011;26964;50.428;19.218;2023-08-17T01:52:40;13.0;;;10.4;;
41229;SDS011;26964;50.428;19.218;2023-08-17T01:53:40;13.8;;;10.9;;
41229;SDS011;26964;50.428;19.218;2023-08-17T01:54:40;13.1;;;9.8;;
41229;SDS011;26964;50.428;19.218;2023-08-17T01:55:40;11.5;;;9.3;;
41229;SDS011;26964;50.428;19.218;2023-08-17T01:56:40;11.7;;;9.9;;
41229;SDS011;26964;50.428;19.218;2023-08-17T01:57:40;14.3;;;10.6;;
41229;SDS011;26964;50.428;19.218;2023-08-17T01:58:40;14.8;;;9.8;;
41229;SDS011;26964;50.428;19.218;2023-08-17T01:59:40;18.5;;;10.4;;
41229;SDS011;26964;50.428;19.218;2023-08-17T02:00:40;12.0;;;9.7;;
41229;SDS011;26964;50.428;19.218;2023-08-17T02:01:40;14.6;;;10.2;;
41229;SDS011;26964;50.428;19.218;2023-08-17T02:02:40;12.3;;;9.7;;
41229;SDS011;26964;50.428;19.218;2023-08-17T02:03:40;15.8;;;9.8;;
41229;SDS011;26964;50.428;19.218;2023-08-17T02:04:40;13.1;;;9.2;;
41229;SDS011;26964;50.428;19.218;2023-08-17T02:06:40;12.5;;;9.2;;
41229;SDS011;26964;50.428;19.218;2023-08-17T02:07:40;11.3;;;8.9;;
41229;SDS011;26964;50.428;19.218;2023-08-17T02:08:40;14.3;;;9.4;;
41229;SDS011;26964;50.428;19.218;2023-08-17T02:09:40;19.6;;;10.2;;
41229;SDS011;26964;50.428;19.218;2023-08-17T02:10:40;12.9;;;9.7;;
41229;SDS011;26964;50.428;19.218;2023-08-17T02:11:40;11.0;;;8.9;;
41229;SDS011;26964;50.428;19.218;2023-08-17T02:12:40;13.4;;;8.7;;
41229;SDS011;26964;50.428;19.218;2023-08-17T02:13:40;12.0;;;9.2;;
41229;SDS011;26964;50.428;19.218;2023-08-17T02:14:40;16.2;;;10.0;;
41229;SDS011;26964;50.428;19.218;2023-08-17T02:15:40;11.9;;;9.5;;
41229;SDS011;26964;50.428;19.218;2023-08-17T02:16:40;13.5;;;9.9;;
41229;SDS011;26964;50.428;19.218;2023-08-17T02:17:40;15.1;;;10.1;;
41229;SDS011;26964;50.428;19.218;2023-08-17T02:18:40;12.0;;;9.5;;
41229;SDS011;26964;50.428;19.218;2023-08-17T02:19:40;15.0;;;10.3;;
41229;SDS011;26964;50.428;19.218;2023-08-17T02:20:40;12.8;;;10.1;;
41229;SDS011;26964;50.428;19.218;2023-08-17T02:21:40;12.2;;;9.8;;
41229;SDS011;26964;50.428;19.218;2023-08-17T02:22:40;14.5;;;10.3;;
41229;SDS011;26964;50.428;19.218;2023-08-17T02:23:40;13.1;;;9.9;;
41229;SDS011;26964;50.428;19.218;2023-08-17T02:24:40;12.8;;;9.3;;
41229;SDS011;26964;50.428;19.218;2023-08-17T02:25:40;14.9;;;9.6;;
41229;SDS011;26964;50.428;19.218;2023-08-17T02:26:40;16.4;;;10.0;;
41229;SDS011;26964;50.428;19.218;2023-08-17T02:27:40;12.9;;;9.8;;
41229;SDS011;26964;50.428;19.218;2023-08-17T02:28:40;14.8;;;9.8;;
41229;SDS011;26964;50.428;19.218;2023-08-17T02:29:40;13.4;;;10.1;;
41229;SDS011;26964;50.428;19.218;2023-08-17T02:30:40;12.6;;;10.4;;
41229;SDS011;26964;50.428;19.218;2023-08-17T02:31:40;16.6;;;10.9;;
41229;SDS011;26964;50.428;19.218;2023-08-17T02:32:40;13.7;;;10.2;;
41229;SDS011;26964;50.428;19.218;2023-08-17T02:33:40;11.5;;;10.0;;
41229;SDS011;26964;50.428;19.218;2023-08-17T02:34:40;12.3;;;10.0;;
41229;SDS011;26964;50.428;19.218;2023-08-17T02:35:40;14.7;;;10.3;;
41229;SDS011;26964;50.428;19.218;2023-08-17T02:36:40;15.1;;;10.6;;
41229;SDS011;26964;50.428;19.218;2023-08-17T02:37:40;12.6;;;9.4;;
41229;SDS011;26964;50.428;19.218;2023-08-17T02:38:40;17.4;;;10.2;;
41229;SDS011;26964;50.428;19.218;2023-08-17T02:39:40;14.8;;;10.7;;
41229;SDS011;26964;50.428;19.218;2023-08-17T02:40:40;11.5;;;10.3;;
41229;SDS011;26964;50.428;19.218;2023-08-17T02:41:40;12.6;;;10.6;;
41229;SDS011;26964;50.428;19.218;2023-08-17T02:42:40;13.8;;;10.8;;
41229;SDS011;26964;50.428;19.218;2023-08-17T02:43:40;17.3;;;10.3;;
41229;SDS011;26964;50.428;19.218;2023-08-17T02:44:40;14.8;;;11.7;;
41229;SDS011;26964;50.428;19.218;2023-08-17T02:45:40;13.4;;;10.7;;
41229;SDS011;26964;50.428;19.218;2023-08-17T02:46:40;13.6;;;10.9;;
41229;SDS011;26964;50.428;19.218;2023-08-17T02:47:40;13.4;;;10.9;;
41229;SDS011;26964;50.428;19.218;2023-08-17T02:48:40;14.6;;;11.0;;
41229;SDS011;26964;50.428;19.218;2023-08-17T02:49:40;13.3;;;10.2;;
41229;SDS011;26964;50.428;19.218;2023-08-17T02:50:40;16.8;;;11.0;;
41229;SDS011;26964;50.428;19.218;2023-08-17T02:51:40;14.0;;;10.5;;
41229;SDS011;26964;50.428;19.218;2023-08-17T02:52:40;16.2;;;10.0;;
41229;SDS011;26964;50.428;19.218;2023-08-17T02:53:41;14.0;;;10.6;;
41229;SDS011;26964;50.428;19.218;2023-08-17T02:54:40;13.7;;;10.5;;
41229;SDS011;26964;50.428;19.218;2023-08-17T02:55:40;13.4;;;10.2;;
41229;SDS011;26964;50.428;19.218;2023-08-17T02:56:40;13.0;;;10.0;;
41229;SDS011;26964;50.428;19.218;2023-08-17T02:57:40;13.0;;;9.5;;
41229;SDS011;26964;50.428;19.218;2023-08-17T02:58:40;13.3;;;10.4;;
41229;SDS011;26964;50.428;19.218;2023-08-17T02:59:40;15.3;;;10.7;;
41229;SDS011;26964;50.428;19.218;2023-08-17T03:00:40;13.1;;;10.5;;
41229;SDS011;26964;50.428;19.218;2023-08-17T03:01:40;13.6;;;10.0;;
41229;SDS011;26964;50.428;19.218;2023-08-17T03:02:40;13.5;;;9.7;;
41229;SDS011;26964;50.428;19.218;2023-08-17T03:03:40;15.8;;;10.4;;
41229;SDS011;26964;50.428;19.218;2023-08-17T03:04:40;11.6;;;9.6;;
41229;SDS011;26964;50.428;19.218;2023-08-17T03:05:40;17.4;;;9.7;;
41229;SDS011;26964;50.428;19.218;2023-08-17T03:06:40;11.9;;;9.5;;
41229;SDS011;26964;50.428;19.218;2023-08-17T03:07:40;15.5;;;9.6;;
41229;SDS011;26964;50.428;19.218;2023-08-17T03:08:40;13.8;;;9.8;;
41229;SDS011;26964;50.428;19.218;2023-08-17T03:09:40;12.1;;;10.1;;
41229;SDS011;26964;50.428;19.218;2023-08-17T03:10:40;12.5;;;9.3;;
41229;SDS011;26964;50.428;19.218;2023-08-17T03:11:40;17.0;;;10.7;;
41229;SDS011;26964;50.428;19.218;2023-08-17T03:12:40;13.7;;;10.8;;
41229;SDS011;26964;50.428;19.218;2023-08-17T03:13:40;15.8;;;10.6;;
41229;SDS011;26964;50.428;19.218;2023-08-17T03:14:40;10.9;;;9.7;;
41229;SDS011;26964;50.428;19.218;2023-08-17T03:15:40;12.7;;;9.5;;
41229;SDS011;26964;50.428;19.218;2023-08-17T03:16:40;15.7;;;10.1;;
41229;SDS011;26964;50.428;19.218;2023-08-17T03:17:40;12.6;;;9.3;;
41229;SDS011;26964;50.428;19.218;2023-08-17T03:18:40;13.9;;;9.7;;
41229;SDS011;26964;50.428;19.218;2023-08-17T03:19:40;11.7;;;9.9;;
41229;SDS011;26964;50.428;19.218;2023-08-17T03:20:40;12.8;;;9.5;;
41229;SDS011;26964;50.428;19.218;2023-08-17T03:21:40;14.0;;;10.1;;
41229;SDS011;26964;50.428;19.218;2023-08-17T03:22:40;14.4;;;10.0;;
41229;SDS011;26964;50.428;19.218;2023-08-17T03:23:40;12.5;;;9.6;;
41229;SDS011;26964;50.428;19.218;2023-08-17T03:24:40;12.6;;;9.8;;
41229;SDS011;26964;50.428;19.218;2023-08-17T03:25:40;14.8;;;9.8;;
41229;SDS011;26964;50.428;19.218;2023-08-17T03:26:40;14.7;;;10.1;;
41229;SDS011;26964;50.428;19.218;2023-08-17T03:27:40;12.7;;;9.5;;
41229;SDS011;26964;50.428;19.218;2023-08-17T03:28:40;15.1;;;9.8;;
41229;SDS011;26964;50.428;19.218;2023-08-17T03:29:40;14.0;;;9.7;;
41229;SDS011;26964;50.428;19.218;2023-08-17T03:30:40;15.0;;;10.4;;
41229;SDS011;26964;50.428;19.218;2023-08-17T03:31:40;13.0;;;9.8;;
41229;SDS011;26964;50.428;19.218;2023-08-17T03:32:40;13.6;;;9.8;;
41229;SDS011;26964;50.428;19.218;2023-08-17T03:33:40;15.3;;;10.7;;
41229;SDS011;26964;50.428;19.218;2023-08-17T03:34:40;14.0;;;10.5;;
41229;SDS011;26964;50.428;19.218;2023-08-17T03:35:40;11.7;;;10.4;;
41229;SDS011;26964;50.428;19.218;2023-08-17T03:36:40;13.2;;;9.7;;
41229;SDS011;26964;50.428;19.218;2023-08-17T03:37:40;15.2;;;10.4;;
41229;SDS011;26964;50.428;19.218;2023-08-17T03:38:40;12.6;;;9.7;;
41229;SDS011;26964;50.428;19.218;2023-08-17T03:39:40;14.1;;;10.4;;
41229;SDS011;26964;50.428;19.218;2023-08-17T03:40:40;12.9;;;10.2;;
41229;SDS011;26964;50.428;19.218;2023-08-17T03:41:41;12.9;;;10.3;;
41229;SDS011;26964;50.428;19.218;2023-08-17T03:42:40;15.2;;;10.5;;
41229;SDS011;26964;50.428;19.218;2023-08-17T03:43:40;12.0;;;10.5;;
41229;SDS011;26964;50.428;19.218;2023-08-17T03:44:40;16.0;;;11.0;;
41229;SDS011;26964;50.428;19.218;2023-08-17T03:45:40;12.4;;;10.6;;
41229;SDS011;26964;50.428;19.218;2023-08-17T03:46:40;14.5;;;11.1;;
41229;SDS011;26964;50.428;19.218;2023-08-17T03:47:40;16.4;;;11.0;;
41229;SDS011;26964;50.428;19.218;2023-08-17T03:48:42;14.1;;;11.8;;
41229;SDS011;26964;50.428;19.218;2023-08-17T03:49:41;16.5;;;12.7;;
41229;SDS011;26964;50.428;19.218;2023-08-17T03:50:41;14.7;;;11.7;;
41229;SDS011;26964;50.428;19.218;2023-08-17T03:51:41;16.0;;;12.3;;
41229;SDS011;26964;50.428;19.218;2023-08-17T03:52:40;15.5;;;12.2;;
41229;SDS011;26964;50.428;19.218;2023-08-17T03:53:40;15.7;;;12.3;;
41229;SDS011;26964;50.428;19.218;2023-08-17T03:54:40;15.1;;;12.3;;
41229;SDS011;26964;50.428;19.218;2023-08-17T03:56:40;17.4;;;12.5;;
41229;SDS011;26964;50.428;19.218;2023-08-17T03:57:40;16.4;;;12.2;;
41229;SDS011;26964;50.428;19.218;2023-08-17T03:58:40;15.0;;;12.4;;
41229;SDS011;26964;50.428;19.218;2023-08-17T03:59:41;14.6;;;12.7;;
41229;SDS011;26964;50.428;19.218;2023-08-17T04:00:40;14.6;;;11.8;;
41229;SDS011;26964;50.428;19.218;2023-08-17T04:01:40;17.1;;;12.3;;
41229;SDS011;26964;50.428;19.218;2023-08-17T04:02:40;15.7;;;11.3;;
41229;SDS011;26964;50.428;19.218;2023-08-17T04:03:40;19.1;;;12.0;;
41229;SDS011;26964;50.428;19.218;2023-08-17T04:04:40;18.4;;;12.2;;
41229;SDS011;26964;50.428;19.218;2023-08-17T04:05:40;15.9;;;11.7;;
41229;SDS011;26964;50.428;19.218;2023-08-17T04:06:40;15.8;;;11.9;;
41229;SDS011;26964;50.428;19.218;2023-08-17T04:07:40;14.5;;;12.0;;
41229;SDS011;26964;50.428;19.218;2023-08-17T04:08:40;13.4;;;11.8;;
41229;SDS011;26964;50.428;19.218;2023-08-17T04:10:40;15.6;;;12.9;;
41229;SDS011;26964;50.428;19.218;2023-08-17T04:11:40;14.6;;;11.6;;
41229;SDS011;26964;50.428;19.218;2023-08-17T04:12:40;14.8;;;11.2;;
41229;SDS011;26964;50.428;19.218;2023-08-17T04:13:40;13.7;;;11.4;;
41229;SDS011;26964;50.428;19.218;2023-08-17T04:14:40;13.0;;;11.0;;
41229;SDS011;26964;50.428;19.218;2023-08-17T04:15:40;14.6;;;11.6;;
41229;SDS011;26964;50.428;19.218;2023-08-17T04:16:40;15.9;;;11.8;;
41229;SDS011;26964;50.428;19.218;2023-08-17T04:17:40;13.5;;;11.0;;
41229;SDS011;26964;50.428;19.218;2023-08-17T04:18:40;16.4;;;12.8;;
41229;SDS011;26964;50.428;19.218;2023-08-17T04:19:40;18.0;;;13.0;;
41229;SDS011;26964;50.428;19.218;2023-08-17T04:20:40;16.3;;;12.4;;
41229;SDS011;26964;50.428;19.218;2023-08-17T04:21:40;20.5;;;13.2;;
41229;SDS011;26964;50.428;19.218;2023-08-17T04:22:40;27.2;;;13.0;;
41229;SDS011;26964;50.428;19.218;2023-08-17T04:23:40;26.8;;;14.3;;
41229;SDS011;26964;50.428;19.218;2023-08-17T04:24:40;18.4;;;12.9;;
41229;SDS011;26964;50.428;19.218;2023-08-17T04:25:40;17.4;;;13.0;;
41229;SDS011;26964;50.428;19.218;2023-08-17T04:26:40;19.9;;;12.9;;
41229;SDS011;26964;50.428;19.218;2023-08-17T04:27:40;16.3;;;13.0;;
41229;SDS011;26964;50.428;19.218;2023-08-17T04:28:40;15.1;;;12.7;;
41229;SDS011;26964;50.428;19.218;2023-08-17T04:29:40;15.7;;;13.2;;
41229;SDS011;26964;50.428;19.218;2023-08-17T04:30:40;16.2;;;13.6;;
41229;SDS011;26964;50.428;19.218;2023-08-17T04:31:40;16.4;;;12.8;;
41229;SDS011;26964;50.428;19.218;2023-08-17T04:32:40;18.8;;;12.9;;
41229;SDS011;26964;50.428;19.218;2023-08-17T04:33:40;17.1;;;13.0;;
41229;SDS011;26964;50.428;19.218;2023-08-17T04:34:41;18.4;;;13.7;;
41229;SDS011;26964;50.428;19.218;2023-08-17T04:35:40;16.6;;;13.2;;
41229;SDS011;26964;50.428;19.218;2023-08-17T04:36:40;16.3;;;12.6;;
41229;SDS011;26964;50.428;19.218;2023-08-17T04:37:40;18.0;;;12.5;;
41229;SDS011;26964;50.428;19.218;2023-08-17T04:38:40;17.1;;;12.6;;
41229;SDS011;26964;50.428;19.218;2023-08-17T04:39:40;18.8;;;13.7;;
41229;SDS011;26964;50.428;19.218;2023-08-17T04:40:40;15.0;;;13.3;;
41229;SDS011;26964;50.428;19.218;2023-08-17T04:41:40;20.8;;;13.7;;
41229;SDS011;26964;50.428;19.218;2023-08-17T04:42:40;14.9;;;12.6;;
41229;SDS011;26964;50.428;19.218;2023-08-17T04:43:40;15.8;;;11.7;;
41229;SDS011;26964;50.428;19.218;2023-08-17T04:44:40;14.5;;;13.0;;
41229;SDS011;26964;50.428;19.218;2023-08-17T04:45:40;16.3;;;12.8;;
41229;SDS011;26964;50.428;19.218;2023-08-17T04:46:40;16.2;;;11.9;;
41229;SDS011;26964;50.428;19.218;2023-08-17T04:47:40;15.3;;;12.2;;
41229;SDS011;26964;50.428;19.218;2023-08-17T04:48:40;21.9;;;13.0;;
41229;SDS011;26964;50.428;19.218;2023-08-17T04:49:40;15.2;;;13.5;;
41229;SDS011;26964;50.428;19.218;2023-08-17T04:50:40;16.9;;;12.5;;
41229;SDS011;26964;50.428;19.218;2023-08-17T04:51:40;15.4;;;13.7;;
41229;SDS011;26964;50.428;19.218;2023-08-17T04:52:40;15.4;;;12.9;;
41229;SDS011;26964;50.428;19.218;2023-08-17T04:53:40;18.0;;;13.2;;
41229;SDS011;26964;50.428;19.218;2023-08-17T04:54:40;16.0;;;13.1;;
41229;SDS011;26964;50.428;19.218;2023-08-17T04:55:40;18.1;;;13.5;;
41229;SDS011;26964;50.428;19.218;2023-08-17T04:56:40;15.3;;;13.1;;
41229;SDS011;26964;50.428;19.218;2023-08-17T04:57:40;16.6;;;13.9;;
41229;SDS011;26964;50.428;19.218;2023-08-17T04:58:40;13.4;;;12.0;;
41229;SDS011;26964;50.428;19.218;2023-08-17T04:59:40;19.6;;;13.5;;
41229;SDS011;26964;50.428;19.218;2023-08-17T05:00:40;16.4;;;12.8;;
41229;SDS011;26964;50.428;19.218;2023-08-17T05:01:40;16.7;;;12.5;;
41229;SDS011;26964;50.428;19.218;2023-08-17T05:02:40;14.6;;;12.2;;
41229;SDS011;26964;50.428;19.218;2023-08-17T05:03:40;16.0;;;12.9;;
41229;SDS011;26964;50.428;19.218;2023-08-17T05:04:40;17.0;;;12.6;;
41229;SDS011;26964;50.428;19.218;2023-08-17T05:05:40;15.0;;;12.8;;
41229;SDS011;26964;50.428;19.218;2023-08-17T05:06:40;16.5;;;12.8;;
41229;SDS011;26964;50.428;19.218;2023-08-17T05:07:40;18.1;;;13.2;;
41229;SDS011;26964;50.428;19.218;2023-08-17T05:08:40;15.9;;;13.8;;
41229;SDS011;26964;50.428;19.218;2023-08-17T05:09:40;14.6;;;13.1;;
41229;SDS011;26964;50.428;19.218;2023-08-17T05:10:40;15.2;;;12.2;;
41229;SDS011;26964;50.428;19.218;2023-08-17T05:11:40;16.9;;;12.9;;
41229;SDS011;26964;50.428;19.218;2023-08-17T05:12:40;14.3;;;12.8;;
41229;SDS011;26964;50.428;19.218;2023-08-17T05:13:40;17.0;;;12.3;;
41229;SDS011;26964;50.428;19.218;2023-08-17T05:14:40;16.2;;;12.7;;
41229;SDS011;26964;50.428;19.218;2023-08-17T05:15:40;14.8;;;12.7;;
41229;SDS011;26964;50.428;19.218;2023-08-17T05:16:40;15.3;;;13.3;;
41229;SDS011;26964;50.428;19.218;2023-08-17T05:17:40;15.0;;;12.9;;
41229;SDS011;26964;50.428;19.218;2023-08-17T05:18:40;17.8;;;12.9;;
41229;SDS011;26964;50.428;19.218;2023-08-17T05:19:40;14.3;;;12.7;;
41229;SDS011;26964;50.428;19.218;2023-08-17T05:20:40;15.7;;;13.4;;
41229;SDS011;26964;50.428;19.218;2023-08-17T05:21:40;14.5;;;13.0;;
41229;SDS011;26964;50.428;19.218;2023-08-17T05:22:40;19.1;;;12.9;;
41229;SDS011;26964;50.428;19.218;2023-08-17T05:23:40;15.5;;;12.9;;
41229;SDS011;26964;50.428;19.218;2023-08-17T05:24:40;15.4;;;13.1;;
41229;SDS011;26964;50.428;19.218;2023-08-17T05:25:40;16.4;;;13.1;;
41229;SDS011;26964;50.428;19.218;2023-08-17T05:26:40;14.0;;;12.5;;
41229;SDS011;26964;50.428;19.218;2023-08-17T05:27:40;15.3;;;13.1;;
41229;SDS011;26964;50.428;19.218;2023-08-17T05:28:40;15.6;;;13.3;;
41229;SDS011;26964;50.428;19.218;2023-08-17T05:29:40;15.8;;;13.5;;
41229;SDS011;26964;50.428;19.218;2023-08-17T05:30:40;14.8;;;13.2;;
41229;SDS011;26964;50.428;19.218;2023-08-17T05:31:40;17.1;;;13.6;;
41229;SDS011;26964;50.428;19.218;2023-08-17T05:32:40;15.2;;;13.1;;
41229;SDS011;26964;50.428;19.218;2023-08-17T05:33:40;14.8;;;12.8;;
41229;SDS011;26964;50.428;19.218;2023-08-17T05:34:40;17.4;;;13.0;;
41229;SDS011;26964;50.428;19.218;2023-08-17T05:35:40;18.3;;;13.8;;
41229;SDS011;26964;50.428;19.218;2023-08-17T05:36:40;18.0;;;13.7;;
41229;SDS011;26964;50.428;19.218;2023-08-17T05:37:40;18.8;;;13.4;;
41229;SDS011;26964;50.428;19.218;2023-08-17T05:38:40;18.1;;;13.9;;
41229;SDS011;26964;50.428;19.218;2023-08-17T05:39:40;16.6;;;13.1;;
41229;SDS011;26964;50.428;19.218;2023-08-17T05:40:40;17.9;;;13.4;;
41229;SDS011;26964;50.428;19.218;2023-08-17T05:41:40;15.9;;;13.2;;
41229;SDS011;26964;50.428;19.218;2023-08-17T05:42:40;15.9;;;12.6;;
41229;SDS011;26964;50.428;19.218;2023-08-17T05:43:40;19.6;;;13.3;;
41229;SDS011;26964;50.428;19.218;2023-08-17T05:44:40;21.1;;;12.7;;
41229;SDS011;26964;50.428;19.218;2023-08-17T05:45:40;15.8;;;13.2;;
41229;SDS011;26964;50.428;19.218;2023-08-17T05:46:40;17.3;;;12.8;;
41229;SDS011;26964;50.428;19.218;2023-08-17T05:47:40;18.1;;;14.6;;
41229;SDS011;26964;50.428;19.218;2023-08-17T05:48:40;17.4;;;13.7;;
41229;SDS011;26964;50.428;19.218;2023-08-17T05:49:40;17.7;;;13.4;;
41229;SDS011;26964;50.428;19.218;2023-08-17T05:50:40;15.9;;;13.1;;
41229;SDS011;26964;50.428;19.218;2023-08-17T05:51:40;19.0;;;14.4;;
41229;SDS011;26964;50.428;19.218;2023-08-17T05:52:40;16.6;;;13.9;;
41229;SDS011;26964;50.428;19.218;2023-08-17T05:53:40;46.9;;;15.2;;
41229;SDS011;26964;50.428;19.218;2023-08-17T05:54:40;33.6;;;15.7;;
41229;SDS011;26964;50.428;19.218;2023-08-17T05:55:40;27.6;;;14.7;;
41229;SDS011;26964;50.428;19.218;2023-08-17T05:56:40;18.9;;;13.0;;
41229;SDS011;26964;50.428;19.218;2023-08-17T05:57:40;18.3;;;13.6;;
41229;SDS011;26964;50.428;19.218;2023-08-17T05:58:40;17.8;;;12.2;;
41229;SDS011;26964;50.428;19.218;2023-08-17T05:59:40;16.2;;;13.0;;
41229;SDS011;26964;50.428;19.218;2023-08-17T06:00:40;15.2;;;13.2;;